Time;durP1;ratioP1;P1;durP2;ratioP2;P2;SDS_P1;SDS_P2;PMS_P1;PMS_P2;Temp;Humidity;BMP_temperature;BMP_pressure;BME280_temperature;BME280_humidity;BME280_pressure;Samples;Min_cycle;Max_cycle;Signal;HPM_P1;HPM_P2
2021/09/12 00:00:27;;;;;;;9.10;4.57;;;409.60;1945.60;;;;;;5014822;28;20116;-79
2021/09/12 00:02:53;;;;;;;9.15;4.20;;;409.60;1945.60;;;;;;5014994;28;20026;-79
2021/09/12 00:05:21;;;;;;;7.57;4.20;;;384.60;1894.40;;;;;;5015128;28;20095;-81
2021/09/12 00:07:47;;;;;;;10.20;5.00;;;409.60;1920.00;;;;;;5014955;28;20033;-81
2021/09/12 00:10:14;;;;;;;13.05;5.00;;;384.60;1920.00;;;;;;5014369;28;20482;-81
2021/09/12 00:12:49;;;;;;;11.60;5.57;;;384.40;1945.60;;;;;;5014918;28;20022;-81
2021/09/12 00:15:15;;;;;;;11.90;4.45;;;384.30;1945.60;;;;;;5014860;28;20030;-79
2021/09/12 00:17:41;;;;;;;8.15;4.72;;;384.20;1971.20;;;;;;5014467;28;20030;-79
2021/09/12 00:20:09;;;;;;;12.85;4.95;;;384.30;1971.20;;;;;;5014727;28;20355;-81
2021/09/12 00:22:35;;;;;;;9.82;4.80;;;384.00;1996.80;;;;;;5014647;28;20033;-80
2021/09/12 00:25:02;;;;;;;9.05;4.68;;;359.30;1996.80;;;;;;5014282;28;20096;-79
2021/09/12 00:27:27;;;;;;;9.30;4.90;;;384.10;1996.80;;;;;;5016151;28;20057;-77
2021/09/12 00:29:56;;;;;;;10.00;5.65;;;359.20;1996.80;;;;;;5014365;28;20073;-80
2021/09/12 00:32:22;;;;;;;12.55;5.35;;;359.10;2022.40;;;;;;5013127;28;20022;-80
2021/09/12 00:34:51;;;;;;;10.30;4.38;;;359.00;2022.40;;;;;;5014576;28;20029;-83
2021/09/12 00:37:17;;;;;;;13.77;5.13;;;359.00;2048.00;;;;;;5014581;28;20062;-81
2021/09/12 00:39:43;;;;;;;9.48;5.47;;;359.00;2022.40;;;;;;5014579;28;20021;-80
2021/09/12 00:42:10;;;;;;;13.35;4.78;;;359.00;2022.40;;;;;;5014352;28;20359;-82
2021/09/12 00:44:36;;;;;;;10.13;5.10;;;359.10;2048.00;;;;;;5014025;28;20036;-80
2021/09/12 00:47:11;;;;;;;10.32;4.68;;;358.80;2048.00;;;;;;5014421;28;20378;-80
2021/09/12 00:49:39;;;;;;;9.48;5.00;;;358.80;2048.00;;;;;;5014272;28;20060;-82
2021/09/12 00:52:10;;;;;;;11.93;4.68;;;358.70;2073.60;;;;;;5013919;28;20501;-81
2021/09/12 00:54:47;;;;;;;8.35;4.32;;;358.70;2099.20;;;;;;5014278;28;20030;-82
2021/09/12 00:57:13;;;;;;;15.60;5.30;;;358.40;2124.80;;;;;;5013858;28;20029;-80
2021/09/12 00:59:41;;;;;;;13.45;4.57;;;333.70;2124.80;;;;;;5013530;28;20041;-79
2021/09/12 01:02:13;;;;;;;11.18;4.53;;;358.50;2099.20;;;;;;5013760;28;20026;-80
2021/09/12 01:04:39;;;;;;;11.60;4.90;;;358.70;2099.20;;;;;;5014343;28;20037;-82
2021/09/12 01:07:08;;;;;;;9.30;5.00;;;358.90;2099.20;;;;;;5014588;28;20065;-81
2021/09/12 01:09:39;;;;;;;11.50;4.55;;;358.70;2099.20;;;;;;5014842;28;20026;-81
2021/09/12 01:12:10;;;;;;;9.27;4.40;;;358.60;2124.80;;;;;;5015285;28;20034;-81
2021/09/12 01:14:37;;;;;;;9.38;5.00;;;358.60;2124.80;;;;;;5013904;28;20022;-82
2021/09/12 01:17:03;;;;;;;9.30;4.65;;;358.50;2124.80;;;;;;5014365;28;20022;-81
2021/09/12 01:19:32;;;;;;;12.90;4.68;;;358.60;2124.80;;;;;;5013324;28;20118;-83
2021/09/12 01:22:00;;;;;;;9.90;4.43;;;358.70;2099.20;;;;;;5013422;28;20026;-81
2021/09/12 01:24:30;;;;;;;7.50;4.53;;;358.50;2124.80;;;;;;5013520;28;20109;-81
2021/09/12 01:26:57;;;;;;;11.48;3.92;;;358.70;2099.20;;;;;;5013051;28;20492;-81
2021/09/12 01:29:23;;;;;;;9.82;4.22;;;358.80;2099.20;;;;;;5013836;28;20056;-82
2021/09/12 01:31:50;;;;;;;9.43;4.57;;;358.90;2099.20;;;;;;5013961;28;20030;-82
2021/09/12 01:34:16;;;;;;;11.50;5.05;;;358.90;2073.60;;;;;;5014179;28;20032;-82
2021/09/12 01:36:43;;;;;;;9.60;4.95;;;358.70;2073.60;;;;;;5014860;28;20060;-82
2021/09/12 01:39:10;;;;;;;10.45;5.07;;;358.80;2073.60;;;;;;5014683;28;20026;-83
2021/09/12 01:41:36;;;;;;;11.73;5.53;;;358.80;2048.00;;;;;;5012954;28;20030;-83
2021/09/12 01:44:04;;;;;;;11.68;5.78;;;358.60;2022.40;;;;;;5014122;28;20041;-82
2021/09/12 01:46:34;;;;;;;12.88;6.30;;;358.50;2073.60;;;;;;5013341;28;20026;-80
2021/09/12 01:49:06;;;;;;;10.77;5.55;;;358.70;2073.60;;;;;;5014177;28;20485;-77
2021/09/12 01:51:32;;;;;;;14.30;5.75;;;358.80;2048.00;;;;;;5018917;28;20084;-80
2021/09/12 01:53:58;;;;;;;11.48;4.93;;;358.50;2099.20;;;;;;5017105;28;20088;-79
2021/09/12 01:56:24;;;;;;;10.23;4.40;;;358.70;2048.00;;;;;;4999487;28;20037;-80
2021/09/12 01:58:50;;;;;;;8.70;5.55;;;358.80;2022.40;;;;;;5014211;28;20536;-81
2021/09/12 02:01:16;;;;;;;13.80;5.68;;;358.90;2048.00;;;;;;5012723;28;20038;-82
2021/09/12 02:03:42;;;;;;;14.25;5.70;;;358.90;2048.00;;;;;;5012616;28;20025;-80
2021/09/12 02:06:08;;;;;;;14.88;6.13;;;358.90;2048.00;;;;;;5013696;28;20482;-79
2021/09/12 02:08:34;;;;;;;12.30;5.57;;;358.60;2073.60;;;;;;5013214;28;20253;-82
2021/09/12 02:11:00;;;;;;;17.27;5.75;;;333.70;2099.20;;;;;;5013022;28;20042;-80
2021/09/12 02:13:26;;;;;;;12.65;6.32;;;358.50;2073.60;;;;;;5012819;28;20466;-80
2021/09/12 02:15:53;;;;;;;11.27;5.10;;;333.70;2099.20;;;;;;5012658;28;20044;-83
2021/09/12 02:18:19;;;;;;;12.43;4.95;;;333.60;2099.20;;;;;;5012522;28;20061;-82
2021/09/12 02:20:45;;;;;;;7.57;4.90;;;358.40;2099.20;;;;;;5012110;28;20044;-81
2021/09/12 02:23:11;;;;;;;9.60;4.63;;;358.50;2099.20;;;;;;5012080;28;20030;-81
2021/09/12 02:25:37;;;;;;;10.75;4.53;;;358.50;2073.60;;;;;;5012116;28;20026;-80
2021/09/12 02:28:03;;;;;;;13.18;4.93;;;358.50;2073.60;;;;;;5012679;28;20026;-80
2021/09/12 02:30:29;;;;;;;7.03;4.32;;;358.80;2073.60;;;;;;5012076;28;20057;-80
2021/09/12 02:32:56;;;;;;;5.78;3.88;;;358.40;2073.60;;;;;;5012464;28;20117;-82
2021/09/12 02:35:22;;;;;;;9.45;3.90;;;358.70;2073.60;;;;;;5012095;28;20041;-81
2021/09/12 02:37:51;;;;;;;7.20;3.65;;;359.00;2073.60;;;;;;5011882;28;20026;-80
2021/09/12 02:40:17;;;;;;;9.63;3.85;;;359.00;2048.00;;;;;;5012170;28;20034;-79
2021/09/12 02:42:43;;;;;;;8.93;4.18;;;358.80;2048.00;;;;;;5012717;28;20492;-79
2021/09/12 02:45:13;;;;;;;10.20;4.47;;;358.80;2048.00;;;;;;5012356;28;20061;-79
2021/09/12 02:47:42;;;;;;;9.70;5.22;;;358.50;2099.20;;;;;;5012376;28;20386;-80
2021/09/12 02:50:11;;;;;;;10.13;5.07;;;358.50;2099.20;;;;;;5012129;28;20036;-81
2021/09/12 02:52:38;;;;;;;8.25;4.90;;;358.60;2099.20;;;;;;5011570;28;20157;-81
2021/09/12 02:55:05;;;;;;;9.27;4.55;;;358.90;2073.60;;;;;;5012668;28;20026;-81
2021/09/12 02:57:31;;;;;;;8.82;4.28;;;358.60;2073.60;;;;;;5016535;28;20033;-82
2021/09/12 02:59:59;;;;;;;8.63;4.10;;;358.70;2073.60;;;;;;5016347;28;20026;-82
2021/09/12 03:02:25;;;;;;;9.45;4.57;;;358.70;2073.60;;;;;;5016742;28;20488;-80
2021/09/12 03:04:51;;;;;;;8.45;4.80;;;358.50;2099.20;;;;;;5016529;28;20037;-81
2021/09/12 03:07:17;;;;;;;8.88;4.82;;;358.50;2099.20;;;;;;5016815;28;20026;-80
2021/09/12 03:09:43;;;;;;;10.70;5.22;;;333.20;2176.00;;;;;;5016429;28;20116;-81
2021/09/12 03:12:09;;;;;;;9.38;5.28;;;333.00;2227.20;;;;;;5016243;28;20034;-80
2021/09/12 03:14:38;;;;;;;11.38;5.60;;;333.20;2201.60;;;;;;5016423;28;20084;-79
2021/09/12 03:17:13;;;;;;;10.05;5.35;;;333.20;2201.60;;;;;;5016209;28;20033;-78
2021/09/12 03:19:39;;;;;;;16.75;5.32;;;333.00;2227.20;;;;;;5016129;28;20072;-79
2021/09/12 03:22:14;;;;;;;12.07;5.45;;;332.80;2278.40;;;;;;5016064;28;20080;-80
2021/09/12 03:24:40;;;;;;;12.75;5.55;;;333.00;2252.80;;;;;;5016186;28;20458;-79
2021/09/12 03:27:06;;;;;;;9.23;4.95;;;308.10;2252.80;;;;;;5015639;28;20025;-79
2021/09/12 03:29:32;;;;;;;13.35;5.28;;;308.10;2252.80;;;;;;5015707;28;20501;-82
2021/09/12 03:32:00;;;;;;;8.18;5.10;;;307.80;2278.40;;;;;;4999819;28;20057;-82
2021/09/12 03:34:26;;;;;;;8.00;5.25;;;307.90;2278.40;;;;;;5015886;28;20065;-82
2021/09/12 03:36:52;;;;;;;11.02;5.22;;;307.90;2278.40;;;;;;5016336;28;20022;-81
2021/09/12 03:39:18;;;;;;;7.32;4.65;;;307.90;2278.40;;;;;;5015471;28;20018;-80
2021/09/12 03:41:44;;;;;;;9.38;4.90;;;307.60;2304.00;;;;;;5015924;28;20036;-80
2021/09/12 03:44:10;;;;;;;9.45;4.80;;;307.70;2304.00;;;;;;5015602;28;20385;-81
2021/09/12 03:46:36;;;;;;;9.80;4.80;;;307.80;2304.00;;;;;;5015326;28;20072;-81
2021/09/12 03:49:02;;;;;;;9.90;5.10;;;307.60;2304.00;;;;;;5015422;28;20462;-80
2021/09/12 03:51:29;;;;;;;10.65;5.15;;;307.70;2304.00;;;;;;5015861;28;20167;-82
2021/09/12 03:53:58;;;;;;;9.27;4.75;;;307.70;2304.00;;;;;;5015975;28;20056;-81
2021/09/12 03:56:27;;;;;;;9.20;5.43;;;307.80;2304.00;;;;;;5015346;28;20030;-81
2021/09/12 03:58:53;;;;;;;14.70;6.32;;;307.30;2304.00;;;;;;5015565;28;20033;-81
2021/09/12 04:01:19;;;;;;;10.23;5.50;;;307.60;2304.00;;;;;;5015114;28;20030;-82
2021/09/12 04:03:45;;;;;;;11.10;6.00;;;307.50;2304.00;;;;;;5015647;28;20397;-80
2021/09/12 04:06:11;;;;;;;10.02;5.07;;;282.40;2278.40;;;;;;5015224;28;20028;-81
2021/09/12 04:08:38;;;;;;;10.10;5.55;;;307.20;2304.00;;;;;;5014791;28;20516;-79
2021/09/12 04:11:04;;;;;;;9.95;5.40;;;307.50;2304.00;;;;;;5015106;28;20030;-79
2021/09/12 04:13:30;;;;;;;14.02;5.35;;;307.60;2304.00;;;;;;5014802;28;20030;-81
2021/09/12 04:15:57;;;;;;;12.82;4.63;;;307.70;2304.00;;;;;;5014738;28;20025;-81
2021/09/12 04:18:23;;;;;;;8.18;4.78;;;307.80;2304.00;;;;;;5014723;28;20061;-82
2021/09/12 04:20:49;;;;;;;9.55;4.93;;;307.80;2304.00;;;;;;5014441;28;20454;-81
2021/09/12 04:23:15;;;;;;;13.38;5.13;;;307.80;2304.00;;;;;;5014121;28;20049;-83
2021/09/12 04:25:41;;;;;;;13.55;4.88;;;308.00;2304.00;;;;;;5014751;28;20034;-83
2021/09/12 04:28:07;;;;;;;13.90;6.07;;;307.80;2304.00;;;;;;5014619;28;20464;-82
2021/09/12 04:30:33;;;;;;;13.07;5.93;;;307.80;2304.00;;;;;;5014139;28;20057;-81
2021/09/12 04:32:59;;;;;;;12.00;5.78;;;307.90;2304.00;;;;;;5015089;28;20034;-81
2021/09/12 04:35:25;;;;;;;14.07;6.15;;;308.00;2278.40;;;;;;5014222;28;20366;-82
2021/09/12 04:37:51;;;;;;;15.50;6.32;;;308.00;2278.40;;;;;;5014658;28;20061;-82
2021/09/12 04:40:19;;;;;;;14.88;5.15;;;308.00;2304.00;;;;;;5014395;28;20061;-82
2021/09/12 04:42:45;;;;;;;8.93;4.57;;;308.10;2278.40;;;;;;5014544;28;20359;-81
2021/09/12 04:45:12;;;;;;;8.77;4.45;;;308.10;2278.40;;;;;;5014406;28;20029;-82
2021/09/12 04:47:38;;;;;;;8.43;4.38;;;332.80;2304.00;;;;;;5014162;28;20077;-80
2021/09/12 04:50:05;;;;;;;9.02;4.40;;;332.90;2278.40;;;;;;5013955;28;20096;-80
2021/09/12 04:52:31;;;;;;;12.38;4.57;;;333.00;2278.40;;;;;;5014115;28;20401;-79
2021/09/12 04:54:57;;;;;;;15.93;6.90;;;332.90;2304.00;;;;;;5014337;28;20033;-81
2021/09/12 04:57:23;;;;;;;15.55;7.55;;;308.10;2304.00;;;;;;5014007;28;20080;-81
2021/09/12 04:59:49;;;;;;;17.50;7.20;;;307.70;2304.00;;;;;;5013973;28;20022;-79
2021/09/12 05:02:15;;;;;;;13.25;7.10;;;282.50;2278.40;;;;;;5014188;28;20033;-81
2021/09/12 05:04:41;;;;;;;13.25;7.05;;;307.40;2304.00;;;;;;5014114;28;20537;-80
2021/09/12 05:07:07;;;;;;;16.58;6.97;;;307.60;2304.00;;;;;;5014664;28;20115;-80
2021/09/12 05:09:37;;;;;;;18.50;9.05;;;307.80;2304.00;;;;;;5014325;28;20464;-80
2021/09/12 05:12:33;;;;;;;16.88;7.95;;;307.30;2304.00;;;;;;5013779;28;20034;-80
2021/09/12 05:15:02;;;;;;;12.52;7.00;;;307.30;2304.00;;;;;;5014466;28;20029;-82
2021/09/12 05:17:33;;;;;;;19.85;6.88;;;307.30;2304.00;;;;;;5013932;28;20454;-80
2021/09/12 05:20:11;;;;;;;14.13;6.22;;;307.40;2304.00;;;;;;5014261;28;20030;-79
2021/09/12 05:22:38;;;;;;;13.10;6.47;;;307.60;2304.00;;;;;;5013926;28;20045;-80
2021/09/12 05:25:04;;;;;;;12.40;6.35;;;307.70;2304.00;;;;;;5013707;28;20029;-79
2021/09/12 05:27:30;;;;;;;10.38;7.25;;;282.50;2278.40;;;;;;5013961;28;20046;-80
2021/09/12 05:29:57;;;;;;;14.25;6.30;;;307.70;2304.00;;;;;;5013570;28;20136;-81
2021/09/12 05:32:26;;;;;;;14.52;7.57;;;307.70;2304.00;;;;;;5013893;28;20550;-81
2021/09/12 05:34:52;;;;;;;16.77;7.03;;;307.80;2304.00;;;;;;5014137;28;20026;-79
2021/09/12 05:37:19;;;;;;;13.32;6.63;;;307.70;2304.00;;;;;;5013688;28;20113;-82
2021/09/12 05:39:44;;;;;;;16.65;7.03;;;308.00;2304.00;;;;;;5013351;28;20101;-82
2021/09/12 05:42:10;;;;;;;14.13;7.15;;;307.80;2304.00;;;;;;5013533;28;20092;-82
2021/09/12 05:44:40;;;;;;;13.13;7.40;;;308.10;2304.00;;;;;;5013609;28;20080;-80
2021/09/12 05:47:08;;;;;;;10.82;6.75;;;308.10;2304.00;;;;;;5013559;28;20029;-81
2021/09/12 05:49:34;;;;;;;14.05;7.20;;;332.80;2329.60;;;;;;5013767;28;20026;-82
2021/09/12 05:52:00;;;;;;;10.55;6.50;;;333.00;2329.60;;;;;;5013435;28;20415;-81
2021/09/12 05:54:26;;;;;;;13.90;6.10;;;333.10;2329.60;;;;;;5013344;28;20057;-83
2021/09/12 05:56:52;;;;;;;14.48;5.55;;;333.30;2329.60;;;;;;5013531;28;20430;-81
2021/09/12 05:59:18;;;;;;;13.25;5.53;;;333.30;2329.60;;;;;;5013259;28;20377;-82
2021/09/12 06:01:44;;;;;;;10.40;5.70;;;333.40;2329.60;;;;;;5013212;28;20038;-82
2021/09/12 06:04:10;;;;;;;8.15;5.00;;;333.20;2329.60;;;;;;5012977;28;20030;-80
2021/09/12 06:06:36;;;;;;;9.73;5.45;;;333.50;2329.60;;;;;;5012868;28;20036;-80
2021/09/12 06:09:02;;;;;;;9.82;5.35;;;333.70;2329.60;;;;;;5013171;28;20061;-81
2021/09/12 06:11:28;;;;;;;8.77;5.43;;;358.40;2329.60;;;;;;5013051;28;20103;-80
2021/09/12 06:13:54;;;;;;;9.05;5.60;;;358.60;2329.60;;;;;;5013598;28;20025;-81
2021/09/12 06:16:20;;;;;;;16.08;6.05;;;358.60;2329.60;;;;;;5012788;28;20025;-82
2021/09/12 06:18:46;;;;;;;14.10;7.60;;;358.70;2329.60;;;;;;5012368;28;20053;-80
2021/09/12 06:21:12;;;;;;;9.30;5.30;;;358.70;2329.60;;;;;;5011757;28;20030;-81
2021/09/12 06:23:39;;;;;;;11.88;5.05;;;358.80;2329.60;;;;;;5011661;28;20069;-82
2021/09/12 06:26:05;;;;;;;10.10;5.50;;;358.90;2304.00;;;;;;5012224;28;20037;-82
2021/09/12 06:28:32;;;;;;;11.63;5.22;;;359.00;2304.00;;;;;;5012502;28;20474;-81
2021/09/12 06:30:59;;;;;;;12.77;6.22;;;359.20;2278.40;;;;;;5012721;28;20057;-82
2021/09/12 06:33:25;;;;;;;10.55;6.40;;;359.30;2278.40;;;;;;5011771;28;20485;-81
2021/09/12 06:35:51;;;;;;;14.50;5.95;;;384.10;2278.40;;;;;;5012678;28;20034;-81
2021/09/12 06:38:17;;;;;;;10.90;5.93;;;384.10;2278.40;;;;;;5012180;28;20054;-82
2021/09/12 06:40:44;;;;;;;14.82;6.13;;;384.30;2252.80;;;;;;5011955;28;20029;-82
2021/09/12 06:43:10;;;;;;;8.20;5.05;;;384.40;2252.80;;;;;;5011926;28;20033;-82
2021/09/12 06:45:36;;;;;;;11.73;5.13;;;384.50;2227.20;;;;;;5013807;28;20378;-78
2021/09/12 06:48:02;;;;;;;12.57;5.55;;;384.60;2227.20;;;;;;5012417;28;20033;-79
2021/09/12 06:50:29;;;;;;;9.43;4.82;;;384.70;2227.20;;;;;;5012358;28;20034;-81
2021/09/12 06:52:55;;;;;;;9.23;5.63;;;384.80;2227.20;;;;;;5013521;28;20466;-80
2021/09/12 06:55:21;;;;;;;10.82;5.88;;;409.60;2252.80;;;;;;5012430;28;20029;-80
2021/09/12 06:57:48;;;;;;;8.20;5.13;;;409.80;2227.20;;;;;;5012444;28;20127;-81
2021/09/12 07:00:14;;;;;;;13.45;5.72;;;409.90;2227.20;;;;;;5012483;28;20429;-79
2021/09/12 07:02:40;;;;;;;9.43;5.75;;;410.00;2227.20;;;;;;5012349;28;20125;-79
2021/09/12 07:05:07;;;;;;;11.60;7.25;;;410.20;2201.60;;;;;;5012652;28;20033;-80
2021/09/12 07:07:34;;;;;;;11.20;6.07;;;410.30;2176.00;;;;;;5012407;28;20037;-78
2021/09/12 07:10:00;;;;;;;10.25;6.75;;;435.30;2176.00;;;;;;5012174;28;20116;-78
2021/09/12 07:12:26;;;;;;;11.52;6.88;;;435.30;2176.00;;;;;;5012400;28;20030;-80
2021/09/12 07:14:52;;;;;;;13.00;5.80;;;435.40;2150.40;;;;;;5012717;28;20025;-78
2021/09/12 07:17:18;;;;;;;13.10;7.07;;;435.50;2124.80;;;;;;5012333;28;20355;-79
2021/09/12 07:19:44;;;;;;;10.60;4.72;;;435.70;2124.80;;;;;;5012251;28;20034;-79
2021/09/12 07:22:09;;;;;;;11.25;5.68;;;435.80;2099.20;;;;;;5012301;28;20378;-80
2021/09/12 07:24:35;;;;;;;10.52;5.20;;;435.90;2099.20;;;;;;5011896;28;20393;-79
2021/09/12 07:27:01;;;;;;;8.65;4.78;;;436.00;2073.60;;;;;;5012349;28;20060;-79
2021/09/12 07:29:27;;;;;;;14.73;4.97;;;460.80;2073.60;;;;;;5011782;28;20056;-79
2021/09/12 07:31:55;;;;;;;11.07;4.60;;;460.80;2073.60;;;;;;5013570;28;20034;-79
2021/09/12 07:34:20;;;;;;;9.18;4.85;;;461.10;2048.00;;;;;;5012419;28;20164;-79
2021/09/12 07:36:46;;;;;;;11.10;4.05;;;461.20;2022.40;;;;;;5012287;28;20080;-79
2021/09/12 07:39:12;;;;;;;8.18;4.60;;;461.30;1996.80;;;;;;5012025;28;20033;-78
2021/09/12 07:41:39;;;;;;;9.45;4.35;;;461.50;1945.60;;;;;;5013175;28;20041;-80
2021/09/12 07:44:05;;;;;;;10.45;5.68;;;461.50;1920.00;;;;;;5015658;28;20469;-76
2021/09/12 07:46:31;;;;;;;12.00;5.20;;;461.70;1920.00;;;;;;5016510;28;20060;-76
2021/09/12 07:48:57;;;;;;;9.18;4.90;;;486.40;1945.60;;;;;;5015519;28;20085;-79
2021/09/12 07:51:23;;;;;;;10.95;4.80;;;486.50;1920.00;;;;;;5015289;28;20034;-76
2021/09/12 07:53:48;;;;;;;9.30;5.32;;;486.60;1920.00;;;;;;5015417;28;20026;-77
2021/09/12 07:56:14;;;;;;;13.90;5.97;;;486.80;1894.40;;;;;;5015171;28;20478;-76
2021/09/12 07:58:40;;;;;;;11.73;6.18;;;486.80;1920.00;;;;;;5015127;28;20026;-77
2021/09/12 08:01:06;;;;;;;9.07;5.18;;;487.00;1894.40;;;;;;5016723;28;20104;-76
2021/09/12 08:03:32;;;;;;;9.48;5.15;;;487.20;1894.40;;;;;;5036168;28;20018;-77
2021/09/12 08:05:58;;;;;;;8.18;5.70;;;487.20;1894.40;;;;;;5016263;28;20071;-77
2021/09/12 08:08:23;;;;;;;10.75;5.60;;;487.20;1894.40;;;;;;5014950;28;20053;-77
2021/09/12 08:10:49;;;;;;;13.60;6.60;;;487.30;1868.80;;;;;;5015246;28;20030;-78
2021/09/12 08:13:15;;;;;;;11.18;7.00;;;512.10;1868.80;;;;;;5014595;28;20041;-77
2021/09/12 08:15:41;;;;;;;9.75;4.80;;;512.30;1868.80;;;;;;5014785;28;20033;-76
2021/09/12 08:18:07;;;;;;;11.13;6.28;;;512.30;1817.60;;;;;;5016300;28;20030;-78
2021/09/12 08:20:33;;;;;;;8.65;5.78;;;512.50;1817.60;;;;;;5014770;28;20030;-75
2021/09/12 08:22:58;;;;;;;8.93;5.30;;;512.60;1817.60;;;;;;5015004;28;20377;-76
2021/09/12 08:25:24;;;;;;;10.05;5.38;;;512.80;1817.60;;;;;;5016014;28;20026;-78
2021/09/12 08:27:50;;;;;;;10.10;5.55;;;512.90;1817.60;;;;;;5014744;28;20026;-77
2021/09/12 08:30:16;;;;;;;9.50;5.40;;;537.70;1817.60;;;;;;5015299;28;20117;-76
2021/09/12 08:32:43;;;;;;;10.27;4.72;;;537.60;1817.60;;;;;;5015500;28;20026;-76
2021/09/12 08:35:09;;;;;;;10.25;4.53;;;537.90;1817.60;;;;;;5014299;28;20032;-75
2021/09/12 08:37:35;;;;;;;10.00;4.45;;;538.00;1792.00;;;;;;5014463;28;20040;-75
2021/09/12 08:40:03;;;;;;;9.88;4.68;;;538.20;1792.00;;;;;;5014546;28;20472;-76
2021/09/12 08:42:29;;;;;;;8.25;4.35;;;538.30;1766.40;;;;;;5015699;28;20440;-75
2021/09/12 08:44:55;;;;;;;11.05;4.97;;;538.50;1766.40;;;;;;5014211;28;20057;-76
2021/09/12 08:47:21;;;;;;;10.25;5.07;;;563.40;1766.40;;;;;;5015114;28;20076;-75
2021/09/12 08:49:47;;;;;;;15.07;7.85;;;563.90;1766.40;;;;;;5014768;28;20049;-75
2021/09/12 08:52:13;;;;;;;18.80;11.18;;;563.60;1766.40;;;;;;5014155;28;20057;-75
2021/09/12 08:54:40;;;;;;;9.95;6.63;;;563.80;1766.40;;;;;;5014521;28;20034;-75
2021/09/12 08:57:06;;;;;;;15.95;10.43;;;563.70;1740.80;;;;;;5014184;28;20386;-75
2021/09/12 08:59:34;;;;;;;17.45;9.30;;;563.70;1766.40;;;;;;5015612;28;20090;-75
2021/09/12 09:02:02;;;;;;;12.15;6.60;;;563.80;1766.40;;;;;;5014173;28;20032;-75
2021/09/12 09:04:30;;;;;;;14.65;7.35;;;564.10;1740.80;;;;;;5015478;28;20026;-75
2021/09/12 09:07:09;;;;;;;12.38;7.32;;;564.10;1740.80;;;;;;5015232;28;20029;-74
2021/09/12 09:09:50;;;;;;;12.35;6.60;;;564.10;1715.20;;;;;;5013826;28;20024;-74
2021/09/12 09:12:29;;;;;;;15.65;6.03;;;588.80;1715.20;;;;;;5013473;28;20034;-74
2021/09/12 09:15:19;;;;;;;10.10;5.55;;;589.10;1715.20;;;;;;5013963;28;20033;-75
2021/09/12 09:17:47;;;;;;;9.43;5.47;;;589.40;1689.60;;;;;;5013872;28;20030;-75
2021/09/12 09:20:18;;;;;;;7.18;5.03;;;589.60;1664.00;;;;;;5013562;28;20113;-76
2021/09/12 09:22:47;;;;;;;12.77;6.28;;;589.50;1638.40;;;;;;5014734;28;20173;-76
2021/09/12 09:25:31;;;;;;;10.68;5.30;;;589.50;1638.40;;;;;;5014712;28;20026;-76
2021/09/12 09:28:01;;;;;;;11.32;5.60;;;589.60;1612.80;;;;;;5014647;28;20033;-77
2021/09/12 09:30:49;;;;;;;13.18;5.95;;;589.60;1638.40;;;;;;5013314;28;20096;-77
2021/09/12 09:33:29;;;;;;;20.77;11.32;;;589.60;1612.80;;;;;;5013401;28;20030;-76
2021/09/12 09:35:59;;;;;;;14.20;7.60;;;614.40;1638.40;;;;;;5014764;28;20029;-76
2021/09/12 09:38:32;;;;;;;14.15;6.32;;;614.60;1587.20;;;;;;5013917;28;20057;-76
2021/09/12 09:41:02;;;;;;;9.95;5.30;;;614.90;1587.20;;;;;;5013249;28;20037;-75
2021/09/12 09:43:45;;;;;;;9.35;5.85;;;615.10;1561.60;;;;;;5013292;28;20026;-76
2021/09/12 09:46:38;;;;;;;10.23;4.78;;;615.10;1536.00;;;;;;5014466;28;20026;-75
2021/09/12 09:49:28;;;;;;;15.05;5.88;;;615.30;1536.00;;;;;;5012584;28;20036;-75
2021/09/12 09:52:01;;;;;;;10.50;6.50;;;640.10;1536.00;;;;;;5023084;28;20037;-76
2021/09/12 09:54:30;;;;;;;15.02;6.18;;;640.30;1536.00;;;;;;5013604;28;20037;-76
2021/09/12 09:56:57;;;;;;;11.45;6.53;;;640.40;1510.40;;;;;;5015536;28;20054;-76
2021/09/12 09:59:25;;;;;;;27.48;15.77;;;640.40;1510.40;;;;;;5016368;28;20036;-76
2021/09/12 10:01:54;;;;;;;16.85;9.68;;;640.50;1510.40;;;;;;5012646;28;20053;-76
2021/09/12 10:04:28;;;;;;;17.92;10.10;;;640.60;1510.40;;;;;;5014017;28;20026;-75
2021/09/12 10:06:55;;;;;;;12.40;8.13;;;640.70;1510.40;;;;;;5014461;28;20041;-76
2021/09/12 10:09:22;;;;;;;13.05;6.30;;;640.60;1510.40;;;;;;5012440;28;20161;-76
2021/09/12 10:12:02;;;;;;;7.68;5.13;;;640.90;1484.80;;;;;;5010921;28;20462;-78
2021/09/12 10:14:40;;;;;;;15.30;6.88;;;665.70;1510.40;;;;;;5012573;28;20033;-77
2021/09/12 10:17:13;;;;;;;9.90;6.35;;;665.90;1536.00;;;;;;5013998;28;20037;-77
2021/09/12 10:19:43;;;;;;;8.93;6.05;;;666.00;1510.40;;;;;;5012907;28;20021;-80
2021/09/12 10:22:14;;;;;;;10.32;5.63;;;666.00;1484.80;;;;;;5012650;28;20168;-81
2021/09/12 10:25:02;;;;;;;13.15;7.32;;;666.30;1510.40;;;;;;5013603;28;20040;-81
2021/09/12 10:27:35;;;;;;;10.60;4.72;;;666.50;1484.80;;;;;;5013796;28;20061;-80
2021/09/12 10:30:23;;;;;;;14.18;7.03;;;691.20;1433.60;;;;;;5013692;28;20050;-81
2021/09/12 10:32:50;;;;;;;10.95;4.65;;;691.50;1408.00;;;;;;5014227;28;20030;-79
2021/09/12 10:35:26;;;;;;;13.05;5.60;;;691.60;1408.00;;;;;;5015773;28;20030;-77
2021/09/12 10:37:57;;;;;;;5.60;3.70;;;691.80;1408.00;;;;;;5014878;28;20444;-79
2021/09/12 10:40:23;;;;;;;14.00;9.90;;;692.00;1331.20;;;;;;5014182;28;20029;-79
2021/09/12 10:42:49;;;;;;;9.15;4.47;;;717.00;1408.00;;;;;;5013676;28;20037;-78
2021/09/12 10:45:32;;;;;;;8.13;4.18;;;717.00;1356.80;;;;;;5015511;28;20025;-77
2021/09/12 10:48:18;;;;;;;8.38;4.25;;;717.10;1356.80;;;;;;5014813;28;20052;-78
2021/09/12 10:50:44;;;;;;;9.43;3.95;;;717.40;1331.20;;;;;;5013298;28;20053;-78
2021/09/12 10:53:11;;;;;;;17.80;14.35;;;717.60;1331.20;;;;;;5013891;28;20032;-78
2021/09/12 10:56:01;;;;;;;11.30;5.68;;;742.60;1356.80;;;;;;5017104;28;20037;-78
2021/09/12 10:58:29;;;;;;;8.93;4.45;;;742.50;1331.20;;;;;;5015300;28;20477;-79
2021/09/12 11:01:00;;;;;;;8.98;6.28;;;742.50;1331.20;;;;;;5013943;28;20030;-79
2021/09/12 11:03:27;;;;;;;24.35;9.05;;;742.50;1305.60;;;;;;5013043;28;20383;-79
2021/09/12 11:05:54;;;;;;;299.65;102.78;;;742.80;1305.60;;;;;;5012576;28;20175;-79
2021/09/12 11:08:19;;;;;;;112.43;36.97;;;743.20;1305.60;;;;;;5013243;28;20026;-78
2021/09/12 11:10:49;;;;;;;60.90;22.00;;;743.30;1356.80;;;;;;5012772;28;20480;-79
2021/09/12 11:13:25;;;;;;;37.92;14.95;;;768.30;1280.00;;;;;;5013833;28;20030;-79
2021/09/12 11:16:08;;;;;;;20.08;8.00;;;768.60;1280.00;;;;;;5012918;28;20042;-79
2021/09/12 11:18:50;;;;;;;7.38;3.58;;;768.90;1254.40;;;;;;5017512;28;20576;-80
2021/09/12 11:21:35;;;;;;;7.80;3.63;;;768.90;1228.80;;;;;;5017767;28;20109;-79
2021/09/12 11:24:13;;;;;;;9.75;4.32;;;793.60;1228.80;;;;;;5019036;28;20060;-79
2021/09/12 11:26:45;;;;;;;21.58;5.38;;;793.80;1228.80;;;;;;5018446;28;20032;-79
2021/09/12 11:29:16;;;;;;;21.73;5.03;;;793.80;1254.40;;;;;;5018602;28;20026;-79
2021/09/12 11:31:45;;;;;;;7.72;4.20;;;794.00;1254.40;;;;;;5017695;28;20084;-79
2021/09/12 11:34:12;;;;;;;7.80;4.25;;;794.20;1228.80;;;;;;5015631;28;20025;-79
2021/09/12 11:36:43;;;;;;;10.15;4.68;;;794.40;1203.20;;;;;;5015548;28;20030;-79
2021/09/12 11:39:09;;;;;;;26.27;5.70;;;793.90;1203.20;;;;;;5016091;28;20059;-79
2021/09/12 11:41:35;;;;;;;7.82;4.40;;;793.80;1254.40;;;;;;5016046;28;20801;-79
2021/09/12 11:44:02;;;;;;;7.25;3.50;;;794.20;1228.80;;;;;;5015874;28;20493;-78
2021/09/12 11:46:32;;;;;;;10.82;6.88;;;793.80;1203.20;;;;;;5015531;28;20120;-78
2021/09/12 11:49:05;;;;;;;10.38;4.57;;;794.30;1228.80;;;;;;5015374;28;20026;-78
2021/09/12 11:51:36;;;;;;;7.80;4.35;;;794.30;1177.60;;;;;;5015497;28;20030;-78
2021/09/12 11:54:13;;;;;;;9.05;3.88;;;794.50;1177.60;;;;;;5016465;28;20048;-79
2021/09/12 11:56:40;;;;;;;6.53;4.22;;;819.40;1177.60;;;;;;5016713;28;20037;-78
2021/09/12 11:59:09;;;;;;;10.00;3.78;;;819.30;1177.60;;;;;;5015671;28;20030;-77
2021/09/12 12:01:37;;;;;;;8.13;3.13;;;819.50;1152.00;;;;;;5016895;28;20058;-78
2021/09/12 12:04:04;;;;;;;12.10;3.50;;;819.40;1152.00;;;;;;5015648;28;20053;-78
2021/09/12 12:06:31;;;;;;;6.03;3.22;;;819.60;1152.00;;;;;;5015378;28;20150;-79
2021/09/12 12:09:08;;;;;;;4.72;2.90;;;819.60;1177.60;;;;;;5016265;28;20030;-78
2021/09/12 12:11:43;;;;;;;7.00;4.32;;;819.60;1177.60;;;;;;5017817;28;20045;-79
2021/09/12 12:14:18;;;;;;;9.85;4.68;;;819.70;1177.60;;;;;;5014690;28;20034;-79
2021/09/12 12:16:44;;;;;;;10.23;5.15;;;819.70;1177.60;;;;;;5015854;28;20493;-80